5MD9 weather

Suburban Heliport
Bethesda, Maryland, United States

Public forecast

Using degrees Fahrenheit for public forecast. Weather courtesy of forecast.io.

Closest aviation weather report (METAR) to Suburban Heliport

Closest report is College Park Airport, 8.8 nm (16.3 km) E. Retrieved 2020/08/07 20:55 UTC (7 minutes ago):

KCGS 072055Z AUTO 20005KT 10SM SCT042 SCT048 31/19 A3001 RMK AO1 T03050187

Closest aviation forecast (TAF) to Suburban Heliport

Closest forecast is Ronald Reagan Washington National Airport, 9.3 nm (17.3 km) SSE. Retrieved 2020/08/07 18:22 UTC (3 hours ago):

TAF KDCA 071720Z 0718/0824 17005KT P6SM VCTS SCT025CB BKN110 FM080100 09004KT P6SM VCSH SCT025 BKN250 FM080500 VRB03KT P6SM SCT020 BKN035 FM081000 VRB03KT P6SM SCT020 BKN025 FM081300 01004KT P6SM SCT015 BKN250 FM082200 08004KT P6SM SCT050 BKN250